sensor_id;sensor_type;location;lat;lon;timestamp;P1;durP1;ratioP1;P2;durP2;ratioP2
55756;SDS011;41676;44.610;44.078;2022-10-28T00:04:50;11.07;;;7.75;;
55756;SDS011;41676;44.610;44.078;2022-10-28T00:09:50;15.05;;;8.77;;
55756;SDS011;41676;44.610;44.078;2022-10-28T00:14:51;16.23;;;9.50;;
55756;SDS011;41676;44.610;44.078;2022-10-28T00:19:52;11.68;;;8.82;;
55756;SDS011;41676;44.610;44.078;2022-10-28T00:24:53;12.68;;;8.60;;
55756;SDS011;41676;44.610;44.078;2022-10-28T00:29:54;12.73;;;10.48;;
55756;SDS011;41676;44.610;44.078;2022-10-28T00:34:55;14.55;;;10.85;;
55756;SDS011;41676;44.610;44.078;2022-10-28T00:39:56;10.98;;;9.10;;
55756;SDS011;41676;44.610;44.078;2022-10-28T00:44:58;18.27;;;11.75;;
55756;SDS011;41676;44.610;44.078;2022-10-28T00:50:08;17.83;;;12.23;;
55756;SDS011;41676;44.610;44.078;2022-10-28T00:55:28;20.33;;;12.30;;
55756;SDS011;41676;44.610;44.078;2022-10-28T01:00:32;17.00;;;11.90;;
55756;SDS011;41676;44.610;44.078;2022-10-28T01:05:33;19.88;;;13.30;;
55756;SDS011;41676;44.610;44.078;2022-10-28T01:16:22;18.27;;;11.93;;
55756;SDS011;41676;44.610;44.078;2022-10-28T01:21:39;15.23;;;11.60;;
55756;SDS011;41676;44.610;44.078;2022-10-28T01:43:08;17.23;;;11.90;;
55756;SDS011;41676;44.610;44.078;2022-10-28T01:48:28;19.17;;;11.70;;
55756;SDS011;41676;44.610;44.078;2022-10-28T01:53:39;17.77;;;11.85;;
55756;SDS011;41676;44.610;44.078;2022-10-28T01:58:42;15.90;;;11.18;;
55756;SDS011;41676;44.610;44.078;2022-10-28T02:03:44;17.25;;;11.50;;
55756;SDS011;41676;44.610;44.078;2022-10-28T02:20:15;13.23;;;10.48;;
55756;SDS011;41676;44.610;44.078;2022-10-28T02:24:57;12.43;;;10.68;;
55756;SDS011;41676;44.610;44.078;2022-10-28T02:30:04;14.52;;;10.65;;
55756;SDS011;41676;44.610;44.078;2022-10-28T02:35:10;15.60;;;11.20;;
55756;SDS011;41676;44.610;44.078;2022-10-28T02:40:18;11.82;;;10.10;;
55756;SDS011;41676;44.610;44.078;2022-10-28T02:45:40;16.17;;;10.65;;
55756;SDS011;41676;44.610;44.078;2022-10-28T02:50:44;17.17;;;10.77;;
55756;SDS011;41676;44.610;44.078;2022-10-28T02:55:50;11.77;;;9.80;;
55756;SDS011;41676;44.610;44.078;2022-10-28T03:00:54;11.88;;;9.35;;
55756;SDS011;41676;44.610;44.078;2022-10-28T03:05:54;12.70;;;9.95;;
55756;SDS011;41676;44.610;44.078;2022-10-28T03:10:55;12.73;;;9.63;;
55756;SDS011;41676;44.610;44.078;2022-10-28T03:15:56;12.30;;;8.98;;
55756;SDS011;41676;44.610;44.078;2022-10-28T03:20:57;11.60;;;8.85;;
55756;SDS011;41676;44.610;44.078;2022-10-28T03:25:58;11.70;;;8.88;;
55756;SDS011;41676;44.610;44.078;2022-10-28T03:30:58;13.57;;;9.20;;
55756;SDS011;41676;44.610;44.078;2022-10-28T03:35:59;17.30;;;8.57;;
55756;SDS011;41676;44.610;44.078;2022-10-28T03:41:00;13.80;;;8.35;;
55756;SDS011;41676;44.610;44.078;2022-10-28T03:46:01;14.32;;;8.48;;
55756;SDS011;41676;44.610;44.078;2022-10-28T03:51:01;11.07;;;7.60;;
55756;SDS011;41676;44.610;44.078;2022-10-28T03:56:03;13.80;;;7.60;;
55756;SDS011;41676;44.610;44.078;2022-10-28T04:01:04;11.98;;;7.85;;
55756;SDS011;41676;44.610;44.078;2022-10-28T04:06:05;10.88;;;7.88;;
55756;SDS011;41676;44.610;44.078;2022-10-28T04:11:06;10.38;;;7.80;;
55756;SDS011;41676;44.610;44.078;2022-10-28T04:16:07;9.38;;;7.00;;
55756;SDS011;41676;44.610;44.078;2022-10-28T04:21:07;9.02;;;6.80;;
55756;SDS011;41676;44.610;44.078;2022-10-28T04:26:08;8.95;;;6.82;;
55756;SDS011;41676;44.610;44.078;2022-10-28T04:31:09;10.85;;;6.88;;
55756;SDS011;41676;44.610;44.078;2022-10-28T04:36:11;10.27;;;6.95;;
55756;SDS011;41676;44.610;44.078;2022-10-28T04:41:12;9.90;;;6.18;;
55756;SDS011;41676;44.610;44.078;2022-10-28T04:46:14;9.50;;;6.00;;
55756;SDS011;41676;44.610;44.078;2022-10-28T04:51:14;9.30;;;6.22;;
55756;SDS011;41676;44.610;44.078;2022-10-28T04:56:15;10.07;;;6.03;;
55756;SDS011;41676;44.610;44.078;2022-10-28T05:01:16;11.27;;;6.00;;
55756;SDS011;41676;44.610;44.078;2022-10-28T05:06:17;8.43;;;5.75;;
55756;SDS011;41676;44.610;44.078;2022-10-28T05:11:18;7.78;;;5.50;;
55756;SDS011;41676;44.610;44.078;2022-10-28T05:16:19;6.72;;;5.45;;
55756;SDS011;41676;44.610;44.078;2022-10-28T05:21:20;9.93;;;5.90;;
55756;SDS011;41676;44.610;44.078;2022-10-28T05:26:20;7.97;;;4.60;;
55756;SDS011;41676;44.610;44.078;2022-10-28T05:31:21;8.55;;;4.57;;
55756;SDS011;41676;44.610;44.078;2022-10-28T05:36:22;6.32;;;4.82;;
55756;SDS011;41676;44.610;44.078;2022-10-28T05:41:23;7.18;;;4.75;;
55756;SDS011;41676;44.610;44.078;2022-10-28T05:46:24;6.57;;;4.22;;
55756;SDS011;41676;44.610;44.078;2022-10-28T05:51:24;8.30;;;4.50;;
55756;SDS011;41676;44.610;44.078;2022-10-28T05:56:25;5.10;;;3.90;;
55756;SDS011;41676;44.610;44.078;2022-10-28T06:01:26;5.72;;;4.18;;
55756;SDS011;41676;44.610;44.078;2022-10-28T06:06:27;4.97;;;3.78;;
55756;SDS011;41676;44.610;44.078;2022-10-28T06:11:28;6.43;;;3.70;;
55756;SDS011;41676;44.610;44.078;2022-10-28T06:16:29;5.15;;;4.07;;
55756;SDS011;41676;44.610;44.078;2022-10-28T06:21:29;8.00;;;3.83;;
55756;SDS011;41676;44.610;44.078;2022-10-28T06:26:30;6.18;;;3.70;;
55756;SDS011;41676;44.610;44.078;2022-10-28T06:31:31;9.65;;;4.93;;
55756;SDS011;41676;44.610;44.078;2022-10-28T06:36:32;10.18;;;4.63;;
55756;SDS011;41676;44.610;44.078;2022-10-28T06:41:33;5.28;;;4.28;;
55756;SDS011;41676;44.610;44.078;2022-10-28T06:46:34;8.05;;;4.15;;
55756;SDS011;41676;44.610;44.078;2022-10-28T06:51:35;6.90;;;4.50;;
55756;SDS011;41676;44.610;44.078;2022-10-28T06:56:36;5.68;;;4.35;;
55756;SDS011;41676;44.610;44.078;2022-10-28T07:01:37;10.05;;;4.47;;
55756;SDS011;41676;44.610;44.078;2022-10-28T07:06:38;12.25;;;4.43;;
55756;SDS011;41676;44.610;44.078;2022-10-28T07:11:39;5.55;;;4.03;;
55756;SDS011;41676;44.610;44.078;2022-10-28T07:16:42;7.70;;;4.53;;
55756;SDS011;41676;44.610;44.078;2022-10-28T07:21:43;7.68;;;4.05;;
55756;SDS011;41676;44.610;44.078;2022-10-28T07:26:46;5.88;;;3.60;;
55756;SDS011;41676;44.610;44.078;2022-10-28T07:31:48;4.38;;;3.05;;
55756;SDS011;41676;44.610;44.078;2022-10-28T07:36:52;7.38;;;2.90;;
55756;SDS011;41676;44.610;44.078;2022-10-28T07:41:53;4.18;;;2.38;;
55756;SDS011;41676;44.610;44.078;2022-10-28T07:46:54;6.00;;;2.88;;
55756;SDS011;41676;44.610;44.078;2022-10-28T07:51:55;4.43;;;2.80;;
55756;SDS011;41676;44.610;44.078;2022-10-28T07:56:56;4.60;;;2.70;;
55756;SDS011;41676;44.610;44.078;2022-10-28T08:01:57;5.55;;;2.80;;
55756;SDS011;41676;44.610;44.078;2022-10-28T08:06:57;3.45;;;2.40;;
55756;SDS011;41676;44.610;44.078;2022-10-28T08:11:58;5.10;;;2.90;;
55756;SDS011;41676;44.610;44.078;2022-10-28T08:16:59;3.70;;;2.42;;
55756;SDS011;41676;44.610;44.078;2022-10-28T08:22:00;4.72;;;2.28;;
55756;SDS011;41676;44.610;44.078;2022-10-28T08:27:02;4.30;;;1.65;;
55756;SDS011;41676;44.610;44.078;2022-10-28T08:32:02;1.38;;;0.90;;
55756;SDS011;41676;44.610;44.078;2022-10-28T08:37:03;3.47;;;1.27;;
55756;SDS011;41676;44.610;44.078;2022-10-28T08:47:27;2.53;;;1.45;;
55756;SDS011;41676;44.610;44.078;2022-10-28T08:57:52;3.47;;;1.50;;
55756;SDS011;41676;44.610;44.078;2022-10-28T09:03:11;3.70;;;1.40;;
55756;SDS011;41676;44.610;44.078;2022-10-28T09:08:23;8.45;;;2.45;;
55756;SDS011;41676;44.610;44.078;2022-10-28T09:18:56;2.78;;;1.88;;
55756;SDS011;41676;44.610;44.078;2022-10-28T09:24:05;3.85;;;1.98;;
55756;SDS011;41676;44.610;44.078;2022-10-28T09:34:57;2.30;;;1.45;;
55756;SDS011;41676;44.610;44.078;2022-10-28T09:40:16;3.25;;;1.70;;
55756;SDS011;41676;44.610;44.078;2022-10-28T09:45:22;2.88;;;1.90;;
55756;SDS011;41676;44.610;44.078;2022-10-28T09:50:28;4.43;;;1.73;;
55756;SDS011;41676;44.610;44.078;2022-10-28T09:55:31;2.92;;;1.50;;
55756;SDS011;41676;44.610;44.078;2022-10-28T10:00:32;2.42;;;1.45;;
55756;SDS011;41676;44.610;44.078;2022-10-28T10:05:33;4.78;;;1.90;;
55756;SDS011;41676;44.610;44.078;2022-10-28T10:15:58;3.70;;;1.90;;
55756;SDS011;41676;44.610;44.078;2022-10-28T10:21:04;2.95;;;1.70;;
55756;SDS011;41676;44.610;44.078;2022-10-28T10:31:24;2.65;;;1.80;;
55756;SDS011;41676;44.610;44.078;2022-10-28T10:36:26;5.97;;;2.17;;
55756;SDS011;41676;44.610;44.078;2022-10-28T10:41:35;3.45;;;2.00;;
55756;SDS011;41676;44.610;44.078;2022-10-28T10:46:38;2.53;;;1.88;;
55756;SDS011;41676;44.610;44.078;2022-10-28T10:51:55;2.90;;;1.88;;
55756;SDS011;41676;44.610;44.078;2022-10-28T10:57:08;4.93;;;2.45;;
55756;SDS011;41676;44.610;44.078;2022-10-28T11:02:30;4.03;;;2.65;;
55756;SDS011;41676;44.610;44.078;2022-10-28T11:07:38;4.05;;;1.90;;
55756;SDS011;41676;44.610;44.078;2022-10-28T11:12:54;6.13;;;2.38;;
55756;SDS011;41676;44.610;44.078;2022-10-28T11:23:25;2.50;;;1.58;;
55756;SDS011;41676;44.610;44.078;2022-10-28T11:44:49;4.10;;;1.40;;
55756;SDS011;41676;44.610;44.078;2022-10-28T12:00:58;3.10;;;1.50;;
55756;SDS011;41676;44.610;44.078;2022-10-28T12:05:43;3.22;;;1.50;;
55756;SDS011;41676;44.610;44.078;2022-10-28T12:16:05;3.75;;;1.73;;
55756;SDS011;41676;44.610;44.078;2022-10-28T12:31:49;3.22;;;1.85;;
55756;SDS011;41676;44.610;44.078;2022-10-28T12:36:59;5.30;;;1.70;;
55756;SDS011;41676;44.610;44.078;2022-10-28T12:47:16;3.63;;;1.85;;
55756;SDS011;41676;44.610;44.078;2022-10-28T12:52:31;2.95;;;1.92;;
55756;SDS011;41676;44.610;44.078;2022-10-28T12:58:05;2.80;;;1.75;;
55756;SDS011;41676;44.610;44.078;2022-10-28T13:03:23;4.20;;;2.10;;
55756;SDS011;41676;44.610;44.078;2022-10-28T13:13:54;4.53;;;2.33;;
55756;SDS011;41676;44.610;44.078;2022-10-28T13:19:24;4.63;;;2.20;;
55756;SDS011;41676;44.610;44.078;2022-10-28T13:30:17;4.75;;;2.15;;
55756;SDS011;41676;44.610;44.078;2022-10-28T13:35:23;3.83;;;2.35;;
55756;SDS011;41676;44.610;44.078;2022-10-28T13:45:43;3.42;;;2.35;;
55756;SDS011;41676;44.610;44.078;2022-10-28T13:50:49;6.22;;;2.72;;
55756;SDS011;41676;44.610;44.078;2022-10-28T13:55:54;4.78;;;2.63;;
55756;SDS011;41676;44.610;44.078;2022-10-28T14:00:56;3.83;;;2.83;;
55756;SDS011;41676;44.610;44.078;2022-10-28T14:06:35;5.00;;;2.80;;
55756;SDS011;41676;44.610;44.078;2022-10-28T14:11:36;3.80;;;3.03;;
55756;SDS011;41676;44.610;44.078;2022-10-28T14:16:37;5.80;;;4.03;;
55756;SDS011;41676;44.610;44.078;2022-10-28T14:32:34;5.55;;;3.60;;
55756;SDS011;41676;44.610;44.078;2022-10-28T14:53:34;5.15;;;4.10;;
55756;SDS011;41676;44.610;44.078;2022-10-28T14:58:38;5.50;;;3.72;;
55756;SDS011;41676;44.610;44.078;2022-10-28T15:03:51;4.93;;;3.85;;
55756;SDS011;41676;44.610;44.078;2022-10-28T15:09:09;5.30;;;3.63;;
55756;SDS011;41676;44.610;44.078;2022-10-28T15:19:23;5.43;;;4.18;;
55756;SDS011;41676;44.610;44.078;2022-10-28T15:24:25;7.18;;;4.43;;
55756;SDS011;41676;44.610;44.078;2022-10-28T15:29:26;5.38;;;4.60;;
55756;SDS011;41676;44.610;44.078;2022-10-28T15:34:28;9.23;;;4.70;;
55756;SDS011;41676;44.610;44.078;2022-10-28T15:39:28;6.32;;;4.10;;
55756;SDS011;41676;44.610;44.078;2022-10-28T15:44:33;6.65;;;4.65;;
55756;SDS011;41676;44.610;44.078;2022-10-28T15:49:37;7.35;;;4.97;;
55756;SDS011;41676;44.610;44.078;2022-10-28T15:54:39;6.43;;;5.03;;
55756;SDS011;41676;44.610;44.078;2022-10-28T15:59:40;9.77;;;4.97;;
55756;SDS011;41676;44.610;44.078;2022-10-28T16:04:41;8.65;;;4.70;;
55756;SDS011;41676;44.610;44.078;2022-10-28T16:09:45;7.22;;;4.40;;
55756;SDS011;41676;44.610;44.078;2022-10-28T16:14:47;7.97;;;4.35;;
55756;SDS011;41676;44.610;44.078;2022-10-28T16:19:59;8.13;;;4.40;;
55756;SDS011;41676;44.610;44.078;2022-10-28T16:25:13;9.20;;;4.22;;
55756;SDS011;41676;44.610;44.078;2022-10-28T16:30:16;4.38;;;3.97;;
55756;SDS011;41676;44.610;44.078;2022-10-28T16:35:20;8.27;;;4.72;;
55756;SDS011;41676;44.610;44.078;2022-10-28T16:40:22;8.38;;;3.95;;
55756;SDS011;41676;44.610;44.078;2022-10-28T16:45:23;8.18;;;4.50;;
55756;SDS011;41676;44.610;44.078;2022-10-28T16:50:24;7.28;;;5.05;;
55756;SDS011;41676;44.610;44.078;2022-10-28T16:55:24;4.25;;;3.55;;
55756;SDS011;41676;44.610;44.078;2022-10-28T17:00:26;5.50;;;3.92;;
55756;SDS011;41676;44.610;44.078;2022-10-28T17:05:27;7.65;;;4.25;;
55756;SDS011;41676;44.610;44.078;2022-10-28T17:10:28;4.00;;;2.25;;
55756;SDS011;41676;44.610;44.078;2022-10-28T17:15:29;4.30;;;2.53;;
55756;SDS011;41676;44.610;44.078;2022-10-28T17:20:30;5.10;;;2.40;;
55756;SDS011;41676;44.610;44.078;2022-10-28T17:25:31;6.38;;;2.17;;
55756;SDS011;41676;44.610;44.078;2022-10-28T17:30:32;2.80;;;1.58;;
55756;SDS011;41676;44.610;44.078;2022-10-28T17:35:33;3.13;;;1.85;;
55756;SDS011;41676;44.610;44.078;2022-10-28T17:40:34;4.00;;;2.05;;
55756;SDS011;41676;44.610;44.078;2022-10-28T17:45:34;3.38;;;2.30;;
55756;SDS011;41676;44.610;44.078;2022-10-28T17:50:35;5.97;;;2.60;;
55756;SDS011;41676;44.610;44.078;2022-10-28T17:55:36;4.82;;;2.60;;
55756;SDS011;41676;44.610;44.078;2022-10-28T18:00:37;4.47;;;2.97;;
55756;SDS011;41676;44.610;44.078;2022-10-28T18:05:38;4.88;;;3.20;;
55756;SDS011;41676;44.610;44.078;2022-10-28T18:10:49;4.88;;;3.20;;
55756;SDS011;41676;44.610;44.078;2022-10-28T18:15:54;6.60;;;2.88;;
55756;SDS011;41676;44.610;44.078;2022-10-28T18:20:55;3.85;;;2.80;;
55756;SDS011;41676;44.610;44.078;2022-10-28T18:26:02;4.10;;;3.10;;
55756;SDS011;41676;44.610;44.078;2022-10-28T18:31:06;4.82;;;2.85;;
55756;SDS011;41676;44.610;44.078;2022-10-28T18:36:13;3.45;;;2.53;;
55756;SDS011;41676;44.610;44.078;2022-10-28T18:41:19;4.40;;;2.97;;
55756;SDS011;41676;44.610;44.078;2022-10-28T18:46:22;4.80;;;3.20;;
55756;SDS011;41676;44.610;44.078;2022-10-28T18:51:23;4.15;;;2.85;;
55756;SDS011;41676;44.610;44.078;2022-10-28T18:56:24;4.85;;;2.90;;
55756;SDS011;41676;44.610;44.078;2022-10-28T19:01:28;5.57;;;2.90;;
55756;SDS011;41676;44.610;44.078;2022-10-28T19:06:31;3.42;;;2.40;;
55756;SDS011;41676;44.610;44.078;2022-10-28T19:11:32;4.47;;;2.45;;
55756;SDS011;41676;44.610;44.078;2022-10-28T19:16:33;3.60;;;2.10;;
55756;SDS011;41676;44.610;44.078;2022-10-28T19:21:34;3.85;;;2.70;;
55756;SDS011;41676;44.610;44.078;2022-10-28T19:26:35;5.90;;;2.60;;
55756;SDS011;41676;44.610;44.078;2022-10-28T19:31:38;6.55;;;2.92;;
55756;SDS011;41676;44.610;44.078;2022-10-28T19:36:41;4.50;;;2.58;;
55756;SDS011;41676;44.610;44.078;2022-10-28T19:41:41;4.72;;;2.67;;
55756;SDS011;41676;44.610;44.078;2022-10-28T19:46:42;5.28;;;2.53;;
55756;SDS011;41676;44.610;44.078;2022-10-28T19:51:43;4.72;;;2.58;;
55756;SDS011;41676;44.610;44.078;2022-10-28T19:56:44;3.13;;;2.08;;
55756;SDS011;41676;44.610;44.078;2022-10-28T20:01:46;4.43;;;2.10;;
55756;SDS011;41676;44.610;44.078;2022-10-28T20:06:48;3.80;;;2.17;;
55756;SDS011;41676;44.610;44.078;2022-10-28T20:11:49;2.97;;;2.03;;
55756;SDS011;41676;44.610;44.078;2022-10-28T20:16:50;7.50;;;2.03;;
55756;SDS011;41676;44.610;44.078;2022-10-28T20:21:51;3.53;;;2.25;;
55756;SDS011;41676;44.610;44.078;2022-10-28T20:26:52;4.15;;;2.30;;
55756;SDS011;41676;44.610;44.078;2022-10-28T20:31:52;3.45;;;2.03;;
55756;SDS011;41676;44.610;44.078;2022-10-28T20:36:53;2.90;;;2.20;;
55756;SDS011;41676;44.610;44.078;2022-10-28T20:41:54;3.15;;;2.15;;
55756;SDS011;41676;44.610;44.078;2022-10-28T20:46:55;6.25;;;3.55;;
55756;SDS011;41676;44.610;44.078;2022-10-28T20:51:56;3.47;;;2.30;;
55756;SDS011;41676;44.610;44.078;2022-10-28T20:56:56;4.45;;;2.30;;
55756;SDS011;41676;44.610;44.078;2022-10-28T21:01:57;3.33;;;2.42;;
55756;SDS011;41676;44.610;44.078;2022-10-28T21:06:58;4.35;;;2.55;;
55756;SDS011;41676;44.610;44.078;2022-10-28T21:11:58;3.25;;;2.20;;
55756;SDS011;41676;44.610;44.078;2022-10-28T21:16:59;4.45;;;2.00;;
55756;SDS011;41676;44.610;44.078;2022-10-28T21:22:00;3.35;;;1.80;;
55756;SDS011;41676;44.610;44.078;2022-10-28T21:27:01;3.78;;;1.73;;
55756;SDS011;41676;44.610;44.078;2022-10-28T21:32:02;5.50;;;1.92;;
55756;SDS011;41676;44.610;44.078;2022-10-28T21:37:03;2.40;;;1.65;;
55756;SDS011;41676;44.610;44.078;2022-10-28T21:42:04;2.70;;;1.60;;
55756;SDS011;41676;44.610;44.078;2022-10-28T21:47:05;10.75;;;2.13;;
55756;SDS011;41676;44.610;44.078;2022-10-28T21:52:06;4.13;;;2.13;;
55756;SDS011;41676;44.610;44.078;2022-10-28T21:57:07;3.00;;;1.98;;
55756;SDS011;41676;44.610;44.078;2022-10-28T22:02:08;5.45;;;1.90;;
55756;SDS011;41676;44.610;44.078;2022-10-28T22:07:09;3.33;;;1.90;;
55756;SDS011;41676;44.610;44.078;2022-10-28T22:12:10;9.13;;;2.53;;
55756;SDS011;41676;44.610;44.078;2022-10-28T22:17:10;5.18;;;2.42;;
55756;SDS011;41676;44.610;44.078;2022-10-28T22:22:11;5.75;;;2.78;;
55756;SDS011;41676;44.610;44.078;2022-10-28T22:27:12;5.53;;;2.30;;
55756;SDS011;41676;44.610;44.078;2022-10-28T22:32:13;25.17;;;2.90;;
55756;SDS011;41676;44.610;44.078;2022-10-28T22:37:14;7.72;;;2.63;;
55756;SDS011;41676;44.610;44.078;2022-10-28T22:42:15;5.43;;;2.65;;
55756;SDS011;41676;44.610;44.078;2022-10-28T22:47:16;13.85;;;3.22;;
55756;SDS011;41676;44.610;44.078;2022-10-28T22:52:17;9.23;;;3.60;;
55756;SDS011;41676;44.610;44.078;2022-10-28T22:57:17;8.32;;;2.83;;
55756;SDS011;41676;44.610;44.078;2022-10-28T23:02:18;8.90;;;3.35;;
55756;SDS011;41676;44.610;44.078;2022-10-28T23:07:19;6.95;;;2.85;;
55756;SDS011;41676;44.610;44.078;2022-10-28T23:12:20;4.70;;;3.22;;
55756;SDS011;41676;44.610;44.078;2022-10-28T23:17:21;9.15;;;2.95;;
55756;SDS011;41676;44.610;44.078;2022-10-28T23:22:21;4.80;;;2.88;;
55756;SDS011;41676;44.610;44.078;2022-10-28T23:27:22;4.40;;;2.63;;
55756;SDS011;41676;44.610;44.078;2022-10-28T23:32:23;7.95;;;2.97;;
55756;SDS011;41676;44.610;44.078;2022-10-28T23:37:25;6.25;;;3.03;;
55756;SDS011;41676;44.610;44.078;2022-10-28T23:42:25;4.78;;;2.67;;
55756;SDS011;41676;44.610;44.078;2022-10-28T23:47:26;4.85;;;2.75;;
55756;SDS011;41676;44.610;44.078;2022-10-28T23:52:27;5.35;;;3.33;;
55756;SDS011;41676;44.610;44.078;2022-10-28T23:57:28;4.93;;;3.13;;
